createdAt,value
2018-08-23T00:00:49.859Z,19.89
2018-08-23T00:02:49.949Z,19.84
2018-08-23T00:04:50.203Z,19.83
2018-08-23T00:06:50.299Z,19.80
2018-08-23T00:08:50.475Z,19.76
2018-08-23T00:10:50.660Z,19.73
2018-08-23T00:12:49.749Z,19.70
2018-08-23T00:14:49.914Z,19.65
2018-08-23T00:16:50.639Z,19.64
2018-08-23T00:18:49.934Z,19.62
2018-08-23T00:20:49.991Z,19.60
2018-08-23T00:22:49.899Z,19.54
2018-08-23T00:24:49.902Z,19.50
2018-08-23T00:26:49.987Z,19.45
2018-08-23T00:28:49.983Z,19.43
2018-08-23T00:30:49.953Z,19.39
2018-08-23T00:32:49.960Z,19.31
2018-08-23T00:34:50.225Z,19.26
2018-08-23T00:36:50.369Z,19.22
2018-08-23T00:38:50.365Z,19.21
2018-08-23T00:40:50.369Z,19.18
2018-08-23T00:42:50.357Z,19.15
2018-08-23T00:44:50.373Z,19.10
2018-08-23T00:46:50.534Z,19.07
2018-08-23T00:48:50.517Z,19.02
2018-08-23T00:50:50.526Z,18.99
2018-08-23T00:52:50.511Z,18.96
2018-08-23T00:54:50.566Z,18.94
2018-08-23T00:56:49.752Z,18.89
2018-08-23T00:58:49.896Z,18.86
2018-08-23T01:00:49.975Z,18.83
2018-08-23T01:02:50.081Z,18.80
2018-08-23T01:04:50.473Z,18.77
2018-08-23T01:06:50.616Z,18.73
2018-08-23T01:08:49.718Z,18.67
2018-08-23T01:10:49.816Z,18.63
2018-08-23T01:12:49.743Z,18.61
2018-08-23T01:14:49.857Z,18.57
2018-08-23T01:16:50.144Z,18.52
2018-08-23T01:18:50.164Z,18.50
2018-08-23T01:20:50.146Z,18.47
2018-08-23T01:22:50.122Z,18.43
2018-08-23T01:24:50.131Z,18.41
2018-08-23T01:26:50.209Z,18.40
2018-08-23T01:28:50.179Z,18.39
2018-08-23T01:30:50.213Z,18.40
2018-08-23T01:32:50.281Z,18.39
2018-08-23T01:34:50.579Z,18.40
2018-08-23T01:36:49.837Z,18.37
2018-08-23T01:38:50.222Z,18.35
2018-08-23T01:40:50.209Z,18.31
2018-08-23T01:42:50.238Z,18.30
2018-08-23T01:44:50.226Z,18.28
2018-08-23T01:46:50.364Z,18.27
2018-08-23T01:48:50.356Z,18.24
2018-08-23T01:50:50.290Z,18.12
2018-08-23T01:52:50.355Z,18.07
2018-08-23T01:54:50.350Z,18.04
2018-08-23T01:56:50.503Z,18.03
2018-08-23T01:58:50.567Z,18.00
2018-08-23T02:00:50.492Z,17.94
2018-08-23T02:02:50.454Z,17.92
2018-08-23T02:04:49.966Z,17.89
2018-08-23T02:06:49.983Z,17.86
2018-08-23T02:08:49.917Z,17.82
2018-08-23T02:10:49.986Z,17.76
2018-08-23T02:12:49.948Z,17.71
2018-08-23T02:14:49.911Z,17.67
2018-08-23T02:16:50.105Z,17.65
2018-08-23T02:18:50.122Z,17.62
2018-08-23T02:20:50.291Z,17.58
2018-08-23T02:22:50.351Z,17.53
2018-08-23T02:24:50.334Z,17.47
2018-08-23T02:26:50.651Z,17.45
2018-08-23T02:28:49.700Z,17.42
2018-08-23T02:30:49.790Z,17.40
2018-08-23T02:32:50.006Z,17.35
2018-08-23T02:34:50.313Z,17.33
2018-08-23T02:36:50.456Z,17.32
2018-08-23T02:38:50.492Z,17.31
2018-08-23T02:40:50.494Z,17.29
2018-08-23T02:42:50.478Z,17.29
2018-08-23T02:44:50.537Z,17.27
2018-08-23T02:46:49.821Z,17.25
2018-08-23T02:48:49.879Z,17.23
2018-08-23T02:50:49.850Z,17.22
2018-08-23T02:52:49.918Z,17.21
2018-08-23T02:54:49.941Z,17.19
2018-08-23T02:56:50.131Z,17.19
2018-08-23T02:58:50.130Z,17.14
2018-08-23T03:00:50.289Z,17.13
2018-08-23T03:02:50.281Z,17.13
2018-08-23T03:04:49.722Z,17.12
2018-08-23T03:06:49.959Z,17.12
2018-08-23T03:08:50.430Z,17.11
2018-08-23T03:10:50.534Z,17.11
2018-08-23T03:12:50.625Z,17.11
2018-08-23T03:14:50.547Z,17.14
2018-08-23T03:16:49.760Z,17.16
2018-08-23T03:18:50.497Z,17.16
2018-08-23T03:20:50.487Z,17.13
2018-08-23T03:22:50.445Z,17.10
2018-08-23T03:24:50.393Z,17.07
2018-08-23T03:26:50.494Z,17.04
2018-08-23T03:28:50.398Z,17.01
2018-08-23T03:30:50.369Z,17.01
2018-08-23T03:32:50.384Z,17.01
2018-08-23T03:34:50.622Z,17.00
2018-08-23T03:36:49.765Z,17.00
2018-08-23T03:38:49.783Z,16.98
2018-08-23T03:40:49.817Z,16.99
2018-08-23T03:42:49.805Z,16.99
2018-08-23T03:44:49.743Z,16.96
2018-08-23T03:46:49.960Z,16.92
2018-08-23T03:48:49.875Z,16.92
2018-08-23T03:50:49.868Z,16.91
2018-08-23T03:52:49.999Z,16.90
2018-08-23T03:54:49.962Z,16.87
2018-08-23T03:56:50.087Z,16.87
2018-08-23T03:58:50.044Z,16.83
2018-08-23T04:00:50.009Z,16.80
2018-08-23T04:02:49.855Z,16.73
2018-08-23T04:04:50.327Z,16.67
2018-08-23T04:06:50.462Z,16.66
2018-08-23T04:08:50.496Z,16.65
2018-08-23T04:10:50.503Z,16.65
2018-08-23T04:12:50.514Z,16.63
2018-08-23T04:14:50.700Z,16.64
2018-08-23T04:16:49.906Z,16.65
2018-08-23T04:18:49.967Z,16.65
2018-08-23T04:20:49.958Z,16.65
2018-08-23T04:22:50.420Z,16.63
2018-08-23T04:24:50.621Z,16.62
2018-08-23T04:26:50.396Z,16.61
2018-08-23T04:28:50.369Z,16.60
2018-08-23T04:30:50.336Z,16.61
2018-08-23T04:32:50.356Z,16.62
2018-08-23T04:34:50.701Z,16.65
2018-08-23T04:36:49.827Z,16.68
2018-08-23T04:38:49.884Z,16.71
2018-08-23T04:40:49.941Z,16.71
2018-08-23T04:42:49.909Z,16.74
2018-08-23T04:44:49.963Z,16.81
2018-08-23T04:46:49.994Z,16.87
2018-08-23T04:48:50.011Z,16.92
2018-08-23T04:50:50.024Z,16.97
2018-08-23T04:52:50.069Z,17.03
2018-08-23T04:54:50.064Z,17.08
2018-08-23T04:56:50.268Z,17.15
2018-08-23T04:58:50.251Z,17.25
2018-08-23T05:00:50.240Z,17.34
2018-08-23T05:02:50.201Z,17.45
2018-08-23T05:04:50.539Z,17.51
2018-08-23T05:06:49.709Z,17.66
2018-08-23T05:08:49.698Z,17.74
2018-08-23T05:10:49.732Z,17.9
2018-08-23T05:12:49.833Z,18.0
2018-08-23T05:14:49.838Z,18.1
2018-08-23T05:16:50.171Z,18.2
2018-08-23T05:18:50.153Z,18.2
2018-08-23T05:20:50.186Z,18.2
2018-08-23T05:22:50.243Z,18.3
2018-08-23T05:24:50.227Z,18.4
2018-08-23T05:26:50.404Z,18.57
2018-08-23T05:28:50.445Z,18.6
2018-08-23T05:30:50.367Z,18.6
2018-08-23T05:32:50.419Z,18.7
2018-08-23T05:34:50.573Z,18.8
2018-08-23T05:36:50.281Z,18.9
2018-08-23T05:38:50.246Z,18.9
2018-08-23T05:40:50.209Z,19.0
2018-08-23T05:42:50.289Z,19.1
2018-08-23T05:44:50.622Z,19.2
2018-08-23T05:46:49.786Z,19.4
2018-08-23T05:48:49.887Z,19.4
2018-08-23T05:50:50.057Z,19.5
2018-08-23T05:52:50.079Z,19.5
2018-08-23T05:54:50.135Z,19.6
2018-08-23T05:56:50.292Z,19.7
2018-08-23T05:58:50.280Z,19.7
2018-08-23T06:00:50.246Z,19.8
2018-08-23T06:02:50.742Z,19.9
2018-08-23T06:04:50.241Z,20.0
2018-08-23T06:06:50.382Z,20.0
2018-08-23T06:08:50.423Z,20.2
2018-08-23T06:10:50.397Z,20.2
2018-08-23T06:12:50.504Z,20.4
2018-08-23T06:14:50.505Z,20.4
2018-08-23T06:16:49.828Z,20.4
2018-08-23T06:18:49.865Z,20.6
2018-08-23T06:20:49.865Z,20.6
2018-08-23T06:22:49.954Z,20.7
2018-08-23T06:24:49.953Z,20.8
2018-08-23T06:26:50.058Z,20.8
2018-08-23T06:28:50.009Z,20.8
2018-08-23T06:30:49.996Z,20.9
2018-08-23T06:32:50.323Z,21.0
2018-08-23T06:34:50.178Z,21.0
2018-08-23T06:36:50.201Z,21.1
2018-08-23T06:38:50.893Z,21.2
2018-08-23T06:40:50.048Z,21.4
2018-08-23T06:42:49.954Z,21.5
2018-08-23T06:44:49.824Z,21.5
2018-08-23T06:46:50.032Z,21.7
2018-08-23T06:48:50.527Z,21.8
2018-08-23T06:50:49.868Z,22.0
2018-08-23T06:52:49.842Z,22.0
2018-08-23T06:54:49.886Z,22.1
2018-08-23T06:56:50.300Z,22.2
2018-08-23T06:58:50.773Z,22.3
2018-08-23T07:00:49.875Z,22.5
2018-08-23T07:02:49.849Z,22.6
2018-08-23T07:04:50.504Z,22.6
2018-08-23T07:06:51.184Z,22.7
2018-08-23T07:08:50.375Z,22.8
2018-08-23T07:10:50.353Z,22.9
2018-08-23T07:12:50.317Z,22.9
2018-08-23T07:14:50.427Z,23.1
2018-08-23T07:16:50.547Z,23.1
2018-08-23T07:18:50.437Z,23.2
2018-08-23T07:20:50.388Z,23.3
2018-08-23T07:22:50.313Z,23.4
2018-08-23T07:24:50.368Z,23.4
2018-08-23T07:26:50.540Z,23.6
2018-08-23T07:28:50.547Z,23.6
2018-08-23T07:30:50.581Z,23.8
2018-08-23T07:32:50.513Z,23.8
2018-08-23T07:34:49.941Z,23.8
2018-08-23T07:36:50.048Z,23.9
2018-08-23T07:38:49.986Z,24.0
2018-08-23T07:40:49.987Z,24.1
2018-08-23T07:42:50.099Z,24.2
2018-08-23T07:44:50.109Z,24.2
2018-08-23T07:46:50.313Z,24.3
2018-08-23T07:48:50.295Z,24.4
2018-08-23T07:50:50.314Z,24.4
2018-08-23T07:52:51.006Z,24.6
2018-08-23T07:54:50.153Z,24.6
2018-08-23T07:56:50.352Z,24.8
2018-08-23T07:58:50.357Z,24.8
2018-08-23T08:00:50.289Z,24.8
2018-08-23T08:02:50.320Z,24.9
2018-08-23T08:04:50.475Z,25.0
2018-08-23T08:06:49.883Z,25.2
2018-08-23T08:08:50.020Z,25.3
2018-08-23T08:10:49.996Z,25.3
2018-08-23T08:12:49.919Z,25.4
2018-08-23T08:14:50.254Z,25.5
2018-08-23T08:16:50.412Z,25.7
2018-08-23T08:18:50.508Z,25.8
2018-08-23T08:20:50.856Z,25.8
2018-08-23T08:22:49.965Z,25.9
2018-08-23T08:24:49.960Z,26.0
2018-08-23T08:26:50.151Z,26.1
2018-08-23T08:28:50.124Z,26.2
2018-08-23T08:30:50.154Z,26.2
2018-08-23T08:32:50.074Z,26.3
2018-08-23T08:34:50.365Z,26.4
2018-08-23T08:36:50.533Z,26.5
2018-08-23T08:38:50.497Z,26.5
2018-08-23T08:40:50.507Z,26.5
2018-08-23T08:42:50.448Z,26.6
2018-08-23T08:44:50.417Z,26.8
2018-08-23T08:46:50.555Z,26.9
2018-08-23T08:48:50.564Z,27.1
2018-08-23T08:50:50.561Z,27.1
2018-08-23T08:52:50.521Z,27.2
2018-08-23T08:54:50.503Z,27.3
2018-08-23T08:56:51.084Z,27.4
2018-08-23T08:58:50.282Z,27.4
2018-08-23T09:00:50.261Z,27.6
2018-08-23T09:02:50.388Z,27.7
2018-08-23T09:04:49.734Z,27.8
2018-08-23T09:06:49.839Z,27.8
2018-08-23T09:08:49.831Z,27.9
2018-08-23T09:10:49.845Z,28.0
2018-08-23T09:12:49.811Z,28.1
2018-08-23T09:14:49.866Z,28.0
2018-08-23T09:16:50.233Z,28.0
2018-08-23T09:18:50.572Z,28.1
2018-08-23T09:20:51.091Z,28.1
2018-08-23T09:22:50.338Z,28.1
2018-08-23T09:24:50.319Z,28.1
2018-08-23T09:26:50.442Z,28.09
2018-08-23T09:28:50.561Z,28.12
2018-08-23T09:30:50.551Z,28.2
2018-08-23T09:32:50.622Z,28.13
2018-08-23T09:34:49.923Z,27.91
2018-08-23T09:36:50.419Z,27.89
2018-08-23T09:38:50.447Z,27.96
2018-08-23T09:40:50.421Z,28.08
2018-08-23T09:42:50.669Z,28.19
2018-08-23T09:44:49.963Z,28.22
2018-08-23T09:46:50.131Z,28.26
2018-08-23T09:48:50.112Z,28.37
2018-08-23T09:50:50.562Z,28.5
2018-08-23T09:52:50.701Z,28.5
2018-08-23T09:54:49.768Z,28.5
2018-08-23T09:56:49.993Z,28.6
2018-08-23T09:58:50.355Z,28.6
2018-08-23T10:00:50.545Z,28.7
2018-08-23T10:02:50.519Z,28.8
2018-08-23T10:04:50.487Z,28.8
2018-08-23T10:06:50.008Z,28.9
2018-08-23T10:08:49.975Z,29.0
2018-08-23T10:10:49.755Z,29.0
2018-08-23T10:12:49.766Z,29.0
2018-08-23T10:14:49.803Z,29.1
2018-08-23T10:16:49.971Z,29.2
2018-08-23T10:18:49.967Z,29.3
2018-08-23T10:20:50.305Z,29.4
2018-08-23T10:22:50.197Z,29.5
2018-08-23T10:24:50.107Z,29.5
2018-08-23T10:26:50.331Z,29.5
2018-08-23T10:28:50.352Z,29.39
2018-08-23T10:30:50.346Z,29.26
2018-08-23T10:32:50.378Z,29.02
2018-08-23T10:34:49.952Z,28.80
2018-08-23T10:36:50.108Z,28.51
2018-08-23T10:38:50.094Z,28.43
2018-08-23T10:40:50.090Z,28.27
2018-08-23T10:42:50.061Z,28.17
2018-08-23T10:44:50.033Z,28.09
2018-08-23T10:46:50.147Z,27.98
2018-08-23T10:48:50.188Z,27.95
2018-08-23T10:50:50.697Z,27.86
2018-08-23T10:52:49.725Z,27.79
2018-08-23T10:54:49.687Z,27.70
2018-08-23T10:56:49.942Z,27.49
2018-08-23T10:58:49.947Z,27.36
2018-08-23T11:00:49.874Z,27.19
2018-08-23T11:02:49.966Z,27.10
2018-08-23T11:04:50.364Z,27.06
2018-08-23T11:06:50.476Z,26.98
2018-08-23T11:08:50.462Z,26.99
2018-08-23T11:10:50.454Z,26.84
2018-08-23T11:12:50.539Z,26.63
2018-08-23T11:14:50.530Z,26.51
2018-08-23T11:16:51.277Z,26.29
2018-08-23T11:18:50.506Z,26.21
2018-08-23T11:20:50.505Z,26.04
2018-08-23T11:22:50.551Z,26.04
2018-08-23T11:24:50.571Z,26.01
2018-08-23T11:26:49.705Z,26.04
2018-08-23T11:28:49.757Z,26.04
2018-08-23T11:30:49.702Z,26.04
2018-08-23T11:32:49.877Z,26.03
2018-08-23T11:34:50.186Z,25.96
2018-08-23T11:36:50.317Z,25.86
2018-08-23T11:38:50.241Z,25.91
2018-08-23T11:40:50.197Z,25.95
2018-08-23T11:42:50.641Z,25.98
2018-08-23T11:44:49.770Z,25.99
2018-08-23T11:46:50.050Z,25.99
2018-08-23T11:48:50.355Z,25.91
2018-08-23T11:50:50.597Z,25.86
2018-08-23T11:52:49.835Z,25.94
2018-08-23T11:54:49.923Z,26.01
2018-08-23T11:56:50.436Z,26.03
2018-08-23T11:58:50.457Z,26.03
2018-08-23T12:00:50.373Z,26.20
2018-08-23T12:02:50.361Z,26.18
2018-08-23T12:04:49.776Z,26.18
2018-08-23T12:06:50.114Z,26.30
2018-08-23T12:08:50.033Z,26.32
2018-08-23T12:10:49.986Z,26.38
2018-08-23T12:12:49.968Z,26.54
2018-08-23T12:14:49.989Z,26.62
2018-08-23T12:16:50.064Z,26.69
2018-08-23T12:18:50.065Z,26.81
2018-08-23T12:20:50.033Z,26.90
2018-08-23T12:22:50.004Z,26.85
2018-08-23T12:24:49.956Z,26.66
2018-08-23T12:26:50.131Z,26.68
2018-08-23T12:28:50.090Z,26.80
2018-08-23T12:30:50.012Z,26.83
2018-08-23T12:32:50.118Z,27.01
2018-08-23T12:34:50.640Z,27.06
2018-08-23T12:36:49.984Z,27.11
2018-08-23T12:38:50.008Z,27.18
2018-08-23T12:40:50.365Z,27.30
2018-08-23T12:42:50.427Z,27.50
2018-08-23T12:44:50.523Z,27.48
2018-08-23T12:46:50.455Z,27.63
2018-08-23T12:48:50.611Z,27.7
2018-08-23T12:50:49.742Z,27.8
2018-08-23T12:52:49.734Z,27.9
2018-08-23T12:54:49.859Z,28.0
2018-08-23T12:56:50.260Z,28.0
2018-08-23T12:58:50.266Z,28.2
2018-08-23T13:00:50.535Z,28.3
2018-08-23T13:02:51.081Z,28.3
2018-08-23T13:04:50.618Z,28.4
2018-08-23T13:06:49.871Z,28.4
2018-08-23T13:08:49.927Z,28.6
2018-08-23T13:10:49.914Z,28.7
2018-08-23T13:12:49.996Z,28.7
2018-08-23T13:14:50.173Z,28.7
2018-08-23T13:16:50.423Z,28.8
2018-08-23T13:18:50.454Z,28.8
2018-08-23T13:20:50.557Z,28.8
2018-08-23T13:22:50.730Z,28.8
2018-08-23T13:24:49.849Z,29.0
2018-08-23T13:26:50.115Z,28.9
2018-08-23T13:28:50.127Z,28.9
2018-08-23T13:30:50.381Z,28.9
2018-08-23T13:32:50.339Z,28.9
2018-08-23T13:34:50.092Z,29.0
2018-08-23T13:36:50.977Z,29.0
2018-08-23T13:38:50.414Z,29.0
2018-08-23T13:40:50.429Z,29.1
2018-08-23T13:42:50.484Z,29.1
2018-08-23T13:44:50.664Z,29.1
2018-08-23T13:46:50.099Z,29.2
2018-08-23T13:48:50.168Z,29.3
2018-08-23T13:50:50.272Z,29.3
2018-08-23T13:52:50.803Z,29.3
2018-08-23T13:54:49.864Z,29.4
2018-08-23T13:56:50.270Z,29.5
2018-08-23T13:58:50.418Z,29.5
2018-08-23T14:00:50.595Z,29.6
2018-08-23T14:02:50.793Z,29.8
2018-08-23T14:04:50.512Z,29.9
2018-08-23T14:06:49.698Z,30.0
2018-08-23T14:08:49.840Z,30.0
2018-08-23T14:10:49.947Z,30.1
2018-08-23T14:12:50.283Z,30.1
2018-08-23T14:14:50.443Z,30.1
2018-08-23T14:16:49.775Z,30.1
2018-08-23T14:18:49.812Z,30.1
2018-08-23T14:20:49.865Z,30.1
2018-08-23T14:22:49.959Z,30.1
2018-08-23T14:24:49.952Z,30.0
2018-08-23T14:26:50.541Z,30.1
2018-08-23T14:28:50.644Z,30.1
2018-08-23T14:30:49.738Z,30.1
2018-08-23T14:32:50.525Z,30.1
2018-08-23T14:34:50.049Z,30.2
2018-08-23T14:36:50.525Z,30.2
2018-08-23T14:38:51.052Z,30.2
2018-08-23T14:40:50.000Z,30.3
2018-08-23T14:42:50.116Z,30.4
2018-08-23T14:44:49.807Z,30.4
2018-08-23T14:46:50.229Z,30.4
2018-08-23T14:48:50.246Z,30.4
2018-08-23T14:50:50.204Z,30.4
2018-08-23T14:52:50.566Z,30.4
2018-08-23T14:54:50.669Z,30.4
2018-08-23T14:56:50.153Z,30.4
2018-08-23T14:58:50.342Z,30.6
2018-08-23T15:00:50.486Z,30.6
2018-08-23T15:02:49.875Z,30.9
2018-08-23T15:04:50.665Z,30.9
2018-08-23T15:06:50.146Z,31.0
2018-08-23T15:08:50.465Z,31.0
2018-08-23T15:10:50.269Z,31.1
2018-08-23T15:12:50.422Z,31.1
2018-08-23T15:14:50.808Z,31.0
2018-08-23T15:16:49.951Z,31.0
2018-08-23T15:18:50.295Z,31.0
2018-08-23T15:20:51.131Z,31.0
2018-08-23T15:22:50.594Z,31.0
2018-08-23T15:24:49.934Z,31.1
2018-08-23T15:26:52.017Z,31.1
2018-08-23T15:28:50.440Z,31.0
2018-08-23T15:30:50.667Z,31.0
2018-08-23T15:32:50.768Z,31.0
2018-08-23T15:34:50.354Z,31.0
2018-08-23T15:36:49.889Z,31.0
2018-08-23T15:38:50.051Z,31.0
2018-08-23T15:40:50.674Z,30.9
2018-08-23T15:42:49.946Z,31.0
2018-08-23T15:44:50.082Z,30.9
2018-08-23T15:46:50.402Z,30.9
2018-08-23T15:48:50.568Z,31.0
2018-08-23T15:50:50.685Z,31.0
2018-08-23T15:52:49.866Z,31.0
2018-08-23T15:54:50.707Z,31.0
2018-08-23T15:56:50.176Z,31.0
2018-08-23T15:58:50.320Z,30.9
2018-08-23T16:00:50.607Z,30.9
2018-08-23T16:02:50.708Z,30.9
2018-08-23T16:04:50.246Z,30.8
2018-08-23T16:06:50.616Z,30.7
2018-08-23T16:08:50.876Z,30.7
2018-08-23T16:10:50.107Z,30.7
2018-08-23T16:12:50.314Z,30.7
2018-08-23T16:14:50.505Z,30.6
2018-08-23T16:16:49.757Z,30.6
2018-08-23T16:18:49.758Z,30.6
2018-08-23T16:20:49.722Z,30.5
2018-08-23T16:22:50.717Z,30.5
2018-08-23T16:24:50.108Z,30.5
2018-08-23T16:26:50.255Z,30.4
2018-08-23T16:28:50.333Z,30.4
2018-08-23T16:30:50.334Z,30.4
2018-08-23T16:32:50.334Z,30.4
2018-08-23T16:34:49.761Z,30.3
2018-08-23T16:36:49.881Z,30.3
2018-08-23T16:38:49.986Z,30.2
2018-08-23T16:40:49.955Z,30.1
2018-08-23T16:42:49.903Z,30.1
2018-08-23T16:44:49.906Z,30.0
2018-08-23T16:46:50.197Z,29.77
2018-08-23T16:48:50.193Z,29.47
2018-08-23T16:50:50.227Z,29.20
2018-08-23T16:52:50.506Z,29.02
2018-08-23T16:54:50.476Z,29.02
2018-08-23T16:56:50.695Z,28.84
2018-08-23T16:58:50.636Z,28.66
2018-08-23T17:00:50.683Z,28.54
2018-08-23T17:02:49.815Z,28.36
2018-08-23T17:04:50.207Z,28.20
2018-08-23T17:06:50.309Z,28.15
2018-08-23T17:08:50.232Z,27.98
2018-08-23T17:10:50.308Z,27.81
2018-08-23T17:12:50.295Z,27.68
2018-08-23T17:14:50.219Z,27.58
2018-08-23T17:16:50.398Z,27.54
2018-08-23T17:18:50.384Z,27.53
2018-08-23T17:20:50.373Z,27.53
2018-08-23T17:22:50.345Z,27.38
2018-08-23T17:24:50.909Z,27.29
2018-08-23T17:26:50.304Z,27.16
2018-08-23T17:28:50.262Z,27.09
2018-08-23T17:30:50.271Z,27.09
2018-08-23T17:32:50.279Z,26.92
2018-08-23T17:34:50.685Z,26.87
2018-08-23T17:36:49.899Z,26.69
2018-08-23T17:38:49.898Z,26.69
2018-08-23T17:40:49.867Z,26.46
2018-08-23T17:42:49.984Z,26.39
2018-08-23T17:44:49.946Z,26.26
2018-08-23T17:46:50.047Z,26.12
2018-08-23T17:48:50.126Z,26.03
2018-08-23T17:50:50.203Z,25.95
2018-08-23T17:52:50.295Z,25.86
2018-08-23T17:54:50.300Z,25.79
2018-08-23T17:56:50.507Z,25.73
2018-08-23T17:58:50.639Z,25.68
2018-08-23T18:00:50.875Z,25.65
2018-08-23T18:02:49.952Z,25.52
2018-08-23T18:04:50.364Z,25.48
2018-08-23T18:06:49.746Z,25.43
2018-08-23T18:08:49.736Z,25.38
2018-08-23T18:10:49.735Z,25.33
2018-08-23T18:12:49.970Z,25.30
2018-08-23T18:14:49.962Z,25.21
2018-08-23T18:16:50.281Z,25.14
2018-08-23T18:18:50.206Z,25.11
2018-08-23T18:20:50.222Z,25.05
2018-08-23T18:22:50.241Z,24.98
2018-08-23T18:24:50.273Z,24.87
2018-08-23T18:26:50.566Z,24.77
2018-08-23T18:28:50.603Z,24.58
2018-08-23T18:30:50.565Z,24.48
2018-08-23T18:32:50.552Z,24.38
2018-08-23T18:34:50.104Z,24.35
2018-08-23T18:36:50.327Z,24.34
2018-08-23T18:38:50.344Z,24.32
2018-08-23T18:40:50.350Z,24.32
2018-08-23T18:42:50.330Z,24.31
2018-08-23T18:44:50.356Z,24.31
2018-08-23T18:46:50.507Z,24.31
2018-08-23T18:48:50.535Z,24.29
2018-08-23T18:50:50.645Z,24.30
2018-08-23T18:52:50.664Z,24.32
2018-08-23T18:54:49.844Z,24.32
2018-08-23T18:56:50.319Z,24.29
2018-08-23T18:58:50.318Z,24.27
2018-08-23T19:00:50.320Z,24.26
2018-08-23T19:02:50.334Z,24.23
2018-08-23T19:04:49.704Z,24.21
2018-08-23T19:06:50.077Z,24.18
2018-08-23T19:08:50.014Z,24.15
2018-08-23T19:10:50.002Z,24.15
2018-08-23T19:12:50.065Z,24.07
2018-08-23T19:14:50.103Z,24.04
2018-08-23T19:16:50.239Z,23.99
2018-08-23T19:18:50.351Z,23.96
2018-08-23T19:20:50.356Z,23.93
2018-08-23T19:22:50.391Z,23.92
2018-08-23T19:24:50.383Z,23.92
2018-08-23T19:28:50.025Z,23.85
2018-08-23T19:30:50.003Z,23.80
2018-08-23T19:32:50.026Z,23.77
2018-08-23T19:34:50.361Z,23.73
2018-08-23T19:36:50.617Z,23.70
2018-08-23T19:38:50.626Z,23.69
2018-08-23T19:40:50.684Z,23.68
2018-08-23T19:42:50.682Z,23.64
2018-08-23T19:44:49.718Z,23.63
2018-08-23T19:46:49.908Z,23.62
2018-08-23T19:48:50.400Z,23.62
2018-08-23T19:50:50.637Z,23.60
2018-08-23T19:52:50.626Z,23.56
2018-08-23T19:54:49.719Z,23.53
2018-08-23T19:56:49.857Z,23.51
2018-08-23T19:58:50.111Z,23.48
2018-08-23T20:00:50.127Z,23.46
2018-08-23T20:02:50.074Z,23.44
2018-08-23T20:04:50.297Z,23.37
2018-08-23T20:06:50.749Z,23.31
2018-08-23T20:08:50.014Z,23.28
2018-08-23T20:10:50.009Z,23.22
2018-08-23T20:12:49.940Z,23.19
2018-08-23T20:14:49.957Z,23.16
2018-08-23T20:16:50.128Z,23.14
2018-08-23T20:18:50.080Z,23.10
2018-08-23T20:20:50.047Z,23.09
2018-08-23T20:22:50.003Z,23.10
2018-08-23T20:24:50.222Z,23.12
2018-08-23T20:26:50.465Z,23.11
2018-08-23T20:28:50.423Z,23.08
2018-08-23T20:30:50.373Z,23.06
2018-08-23T20:32:50.380Z,23.02
2018-08-23T20:34:49.720Z,22.99
2018-08-23T20:36:50.021Z,22.94
2018-08-23T20:38:49.941Z,22.93
2018-08-23T20:40:49.907Z,22.91
2018-08-23T20:42:49.899Z,22.92
2018-08-23T20:44:49.930Z,22.91
2018-08-23T20:46:50.107Z,22.85
2018-08-23T20:48:50.206Z,22.82
2018-08-23T20:50:50.235Z,22.79
2018-08-23T20:52:50.765Z,22.77
2018-08-23T20:54:49.976Z,22.73
2018-08-23T20:56:50.092Z,22.72
2018-08-23T20:58:50.161Z,22.71
2018-08-23T21:00:50.265Z,22.73
2018-08-23T21:02:50.361Z,22.73
2018-08-23T21:04:49.780Z,22.74
2018-08-23T21:06:50.000Z,22.77
2018-08-23T21:08:49.951Z,22.77
2018-08-23T21:10:49.920Z,22.81
2018-08-23T21:12:49.923Z,22.84
2018-08-23T21:14:49.915Z,22.87
2018-08-23T21:16:50.072Z,22.89
2018-08-23T21:18:50.137Z,22.90
2018-08-23T21:20:50.250Z,22.9
2018-08-23T21:22:50.377Z,22.9
2018-08-23T21:24:50.374Z,22.9
2018-08-23T21:26:50.592Z,22.9
2018-08-23T21:28:50.573Z,22.9
2018-08-23T21:30:50.638Z,22.9
2018-08-23T21:32:50.565Z,22.90
2018-08-23T21:34:50.019Z,22.88
2018-08-23T21:36:50.280Z,22.87
2018-08-23T21:38:50.314Z,22.8
2018-08-23T21:40:50.268Z,22.8
2018-08-23T21:42:50.268Z,22.8
2018-08-23T21:44:50.388Z,22.8
2018-08-23T21:46:50.539Z,22.8
2018-08-23T21:48:50.523Z,22.8
2018-08-23T21:50:50.487Z,22.8
2018-08-23T21:52:50.594Z,22.8
2018-08-23T21:54:50.580Z,22.8
2018-08-23T21:56:49.712Z,22.8
2018-08-23T21:58:49.792Z,22.8
2018-08-23T22:00:49.762Z,22.8
2018-08-23T22:02:49.797Z,22.8
2018-08-23T22:04:50.297Z,22.8
2018-08-23T22:06:50.474Z,22.8
2018-08-23T22:08:50.484Z,22.8
2018-08-23T22:10:50.465Z,22.8
2018-08-23T22:12:50.540Z,22.79
2018-08-23T22:14:50.513Z,22.74
2018-08-23T22:16:50.619Z,22.69
2018-08-23T22:18:50.593Z,22.64
2018-08-23T22:20:50.503Z,22.60
2018-08-23T22:22:50.590Z,22.49
2018-08-23T22:24:50.549Z,22.46
2018-08-23T22:26:50.237Z,22.42
2018-08-23T22:28:50.380Z,22.37
2018-08-23T22:30:50.323Z,22.34
2018-08-23T22:32:50.283Z,22.32
2018-08-23T22:34:50.607Z,22.23
2018-08-23T22:36:49.892Z,22.20
2018-08-23T22:38:49.973Z,22.16
2018-08-23T22:40:50.014Z,22.12
2018-08-23T22:42:49.977Z,22.12
2018-08-23T22:44:49.970Z,22.07
2018-08-23T22:46:50.112Z,22.07
2018-08-23T22:48:50.081Z,22.02
2018-08-23T22:50:50.090Z,21.94
2018-08-23T22:52:50.099Z,21.89
2018-08-23T22:54:50.042Z,21.86
2018-08-23T22:56:50.222Z,21.78
2018-08-23T22:58:50.205Z,21.73
2018-08-23T23:00:50.237Z,21.65
2018-08-23T23:02:50.241Z,21.60
2018-08-23T23:04:50.605Z,21.57
2018-08-23T23:06:49.848Z,21.46
2018-08-23T23:08:49.854Z,21.42
2018-08-23T23:10:49.853Z,21.39
2018-08-23T23:12:49.860Z,21.38
2018-08-23T23:14:49.904Z,21.38
2018-08-23T23:16:50.187Z,21.37
2018-08-23T23:18:50.199Z,21.34
2018-08-23T23:20:50.238Z,21.32
2018-08-23T23:22:50.315Z,21.32
2018-08-23T23:24:50.345Z,21.29
2018-08-23T23:26:50.347Z,21.26
2018-08-23T23:28:50.374Z,21.24
2018-08-23T23:30:50.377Z,21.24
2018-08-23T23:32:50.382Z,21.24
2018-08-23T23:34:49.847Z,21.21
2018-08-23T23:36:50.097Z,21.21
2018-08-23T23:38:50.121Z,21.17
2018-08-23T23:40:50.139Z,21.16
2018-08-23T23:42:50.064Z,21.13
2018-08-23T23:44:50.185Z,21.14
2018-08-23T23:46:50.427Z,21.15
2018-08-23T23:48:50.336Z,21.15
2018-08-23T23:50:50.323Z,21.17
2018-08-23T23:52:50.306Z,21.17
2018-08-23T23:54:50.241Z,21.20
2018-08-23T23:56:50.610Z,21.21
2018-08-23T23:58:50.586Z,21.23
